createdAt,value
2023-01-03T00:00:24.919Z,43.02
2023-01-03T00:01:24.889Z,50.11
2023-01-03T00:02:24.921Z,43.18
2023-01-03T00:03:24.875Z,41.73
2023-01-03T00:04:27.607Z,42.86
2023-01-03T00:05:24.846Z,49.79
2023-01-03T00:06:24.857Z,50.60
2023-01-03T00:07:24.868Z,41.41
2023-01-03T00:08:24.821Z,44.96
2023-01-03T00:09:24.853Z,45.60
2023-01-03T00:10:24.831Z,46.89
2023-01-03T00:11:24.801Z,46.08
2023-01-03T00:12:30.443Z,47.70
2023-01-03T00:13:26.778Z,47.21
2023-01-03T00:14:24.791Z,51.08
2023-01-03T00:15:24.768Z,45.92
2023-01-03T00:16:24.787Z,44.79
2023-01-03T00:17:24.814Z,38.51
2023-01-03T00:18:24.752Z,40.12
2023-01-03T00:19:24.745Z,41.09
2023-01-03T00:20:24.755Z,39.16
2023-01-03T00:21:24.714Z,40.77
2023-01-03T00:22:24.726Z,41.09
2023-01-03T00:23:24.718Z,39.32
2023-01-03T00:24:24.699Z,39.80
2023-01-03T00:25:24.684Z,40.28
2023-01-03T00:28:05.728Z,37.87
2023-01-03T00:29:04.843Z,38.35
2023-01-03T00:30:04.853Z,37.71
2023-01-03T00:31:04.902Z,49.47
2023-01-03T00:32:04.824Z,47.37
2023-01-03T00:33:04.820Z,42.22
2023-01-03T00:34:04.808Z,50.43
2023-01-03T00:35:05.643Z,44.15
2023-01-03T00:36:04.807Z,42.06
2023-01-03T00:37:04.804Z,44.63
2023-01-03T00:38:06.711Z,39.80
2023-01-03T00:39:05.911Z,39.16
2023-01-03T00:40:05.860Z,38.83
2023-01-03T00:41:05.862Z,38.67
2023-01-03T00:42:05.843Z,53.98
2023-01-03T21:27:11.548Z,56.07
2023-01-03T21:28:11.497Z,54.14
2023-01-03T21:29:11.499Z,54.46
2023-01-03T21:30:11.490Z,55.59
2023-01-03T21:31:11.581Z,57.69
2023-01-03T21:32:11.542Z,60.91
2023-01-03T21:33:12.570Z,52.69
2023-01-03T21:34:12.553Z,57.20
2023-01-03T21:35:12.537Z,54.30
2023-01-03T21:36:15.233Z,56.88
2023-01-03T21:37:13.521Z,54.79
2023-01-03T21:38:12.563Z,50.60
2023-01-03T21:39:12.512Z,56.72
2023-01-03T21:40:12.521Z,53.01
2023-01-03T21:41:12.500Z,46.89
2023-01-03T21:42:12.492Z,50.60
2023-01-03T21:43:12.496Z,49.31
2023-01-03T21:44:12.479Z,54.14
2023-01-03T21:45:12.506Z,54.30
2023-01-03T21:46:12.686Z,49.31
2023-01-03T21:47:12.457Z,53.33
2023-01-03T21:48:12.464Z,57.69
2023-01-03T21:49:13.021Z,56.24
2023-01-03T21:50:12.464Z,51.88
2023-01-03T21:51:12.420Z,49.63
2023-01-03T21:52:12.428Z,51.72
2023-01-03T21:53:12.427Z,54.46
2023-01-03T21:54:12.536Z,49.79
2023-01-03T21:55:12.384Z,56.40
2023-01-03T21:56:12.375Z,51.56
2023-01-03T21:57:15.206Z,52.37
2023-01-03T21:58:13.372Z,53.66
2023-01-03T21:59:12.550Z,51.72
2023-01-03T22:00:12.360Z,50.11
2023-01-03T22:01:12.462Z,54.95
2023-01-03T22:02:12.488Z,52.85
2023-01-03T22:03:12.425Z,49.95
2023-01-03T22:04:12.346Z,49.15
2023-01-03T22:05:12.310Z,53.82
2023-01-03T22:06:12.661Z,51.40
2023-01-03T22:07:12.293Z,54.14
2023-01-03T22:08:12.299Z,50.60
2023-01-03T22:09:12.296Z,48.66
2023-01-03T22:10:12.434Z,56.56
2023-01-03T22:11:12.274Z,53.50
2023-01-03T22:12:15.318Z,54.46
2023-01-03T22:13:12.255Z,52.37
2023-01-03T22:14:12.247Z,53.33
2023-01-03T22:15:12.717Z,60.42
2023-01-03T22:16:12.223Z,48.98
2023-01-03T22:17:12.211Z,56.88
2023-01-03T22:18:12.203Z,58.81
2023-01-03T22:19:12.196Z,57.69
2023-01-03T22:20:12.183Z,55.75
2023-01-03T22:21:13.180Z,50.27
2023-01-03T22:22:12.214Z,55.59
2023-01-03T22:23:12.164Z,53.98
2023-01-03T22:24:12.178Z,48.98
2023-01-03T22:25:12.172Z,47.05
2023-01-03T22:26:12.133Z,49.79
2023-01-03T22:27:12.124Z,48.66
2023-01-03T22:28:12.105Z,57.85
2023-01-03T22:29:12.114Z,46.41
2023-01-03T22:30:12.107Z,53.01
2023-01-03T22:31:12.088Z,47.86
2023-01-03T22:32:12.124Z,48.18
2023-01-03T22:33:12.088Z,51.08
2023-01-03T22:34:12.063Z,46.41
2023-01-03T22:35:12.055Z,56.24
2023-01-03T22:36:12.052Z,50.43
2023-01-03T22:37:12.038Z,57.52
2023-01-03T22:38:12.036Z,55.59
2023-01-03T22:39:12.020Z,48.66
2023-01-03T22:40:12.052Z,50.43
2023-01-03T22:41:12.017Z,52.85
2023-01-03T22:42:17.702Z,51.72
2023-01-03T22:43:14.002Z,48.18
2023-01-03T22:44:11.989Z,53.17
2023-01-03T22:45:12.665Z,51.88
2023-01-03T22:46:12.758Z,51.40
2023-01-03T22:47:11.962Z,47.21
2023-01-03T22:48:12.591Z,51.72
2023-01-03T22:49:11.973Z,55.43
2023-01-03T22:50:11.946Z,56.07
2023-01-03T22:51:11.976Z,52.05
2023-01-03T22:52:11.916Z,50.92
2023-01-03T22:53:11.916Z,55.27
2023-01-03T22:54:11.902Z,57.69
2023-01-03T22:55:11.923Z,52.69
2023-01-03T22:56:11.894Z,53.17
2023-01-03T22:57:11.901Z,49.31
2023-01-03T22:58:11.874Z,49.47
2023-01-03T22:59:11.866Z,48.66
2023-01-03T23:00:11.855Z,57.04
2023-01-03T23:01:11.933Z,52.53
2023-01-03T23:02:11.997Z,56.07
2023-01-03T23:03:11.849Z,53.01
2023-01-03T23:04:11.931Z,48.82
2023-01-03T23:05:11.823Z,58.33
2023-01-03T23:06:11.813Z,50.27
2023-01-03T23:07:11.812Z,56.40
2023-01-03T23:08:11.796Z,53.98
2023-01-03T23:09:11.793Z,50.92
2023-01-03T23:10:11.796Z,50.27
2023-01-03T23:11:11.766Z,51.08
2023-01-03T23:12:11.836Z,53.82
2023-01-03T23:13:11.744Z,55.75
2023-01-03T23:14:11.775Z,52.85
2023-01-03T23:15:11.740Z,51.88
2023-01-03T23:16:11.787Z,54.62
2023-01-03T23:17:11.797Z,51.24
2023-01-03T23:18:11.725Z,52.21
2023-01-03T23:19:11.734Z,51.88
2023-01-03T23:20:11.695Z,52.05
2023-01-03T23:21:11.691Z,56.88
2023-01-03T23:22:11.690Z,48.66
2023-01-03T23:23:11.664Z,45.60
2023-01-03T23:24:11.658Z,47.37
2023-01-03T23:25:11.674Z,48.82
2023-01-03T23:26:11.638Z,46.25
2023-01-03T23:27:11.635Z,45.44
2023-01-03T23:28:12.588Z,53.01
2023-01-03T23:29:11.636Z,48.34
2023-01-03T23:30:11.623Z,43.83
2023-01-03T23:31:11.662Z,52.69
2023-01-03T23:32:11.603Z,46.41
2023-01-03T23:33:11.586Z,48.98
2023-01-03T23:34:11.599Z,47.53
2023-01-03T23:35:11.568Z,49.47
2023-01-03T23:36:11.566Z,50.60
2023-01-03T23:37:11.555Z,48.66
2023-01-03T23:38:11.542Z,48.66
2023-01-03T23:39:11.535Z,44.96
2023-01-03T23:40:11.528Z,45.12
2023-01-03T23:41:11.528Z,48.34
2023-01-03T23:42:11.516Z,45.60
2023-01-03T23:43:11.496Z,46.25
2023-01-03T23:44:11.494Z,47.05
2023-01-03T23:45:11.518Z,46.25
2023-01-03T23:46:11.747Z,51.56
2023-01-03T23:47:12.792Z,43.83
2023-01-03T23:48:12.465Z,46.89
2023-01-03T23:49:11.459Z,46.57
2023-01-03T23:50:11.446Z,45.92
2023-01-03T23:51:11.460Z,55.59
2023-01-03T23:52:11.456Z,54.30
2023-01-03T23:53:11.457Z,52.53
2023-01-03T23:54:11.425Z,45.44
2023-01-03T23:55:12.840Z,44.63
2023-01-03T23:56:12.418Z,51.72
2023-01-03T23:57:11.466Z,54.46
2023-01-03T23:58:11.395Z,50.11
2023-01-03T23:59:11.375Z,48.18
